Time,TemperatureF,DewpointF,PressureIn,WindDirection,WindDirectionDegrees,WindSpeedMPH,WindSpeedGustMPH,Humidity,HourlyPrecipIn,Conditions,Clouds,dailyrainin,SoftwareType,DateUTC
2013-02-24 00:01:00,43.2,42.8,29.41,South,180,0.0,1.6,98,0.00,,,0.61,fowsr,2013-02-24 05:01:00,
2013-02-24 00:06:00,43.2,42.8,29.40,SW,225,0.0,0.0,98,0.00,,,0.61,fowsr,2013-02-24 05:06:00,
2013-02-24 00:11:00,43.0,42.6,29.40,North,0,0.0,0.0,98,0.00,,,0.61,fowsr,2013-02-24 05:11:00,
2013-02-24 00:16:00,43.0,42.6,29.39,NW,315,0.0,0.0,98,0.00,,,0.61,fowsr,2013-02-24 05:16:00,
2013-02-24 00:21:00,43.0,42.6,29.39,South,180,0.0,0.0,98,0.00,,,0.61,fowsr,2013-02-24 05:21:00,
2013-02-24 00:26:00,43.0,42.6,29.39,South,180,0.0,0.0,98,0.00,,,0.61,fowsr,2013-02-24 05:26:00,
2013-02-24 00:31:00,43.0,42.6,29.39,South,180,0.0,0.0,98,0.00,,,0.61,fowsr,2013-02-24 05:31:00,
2013-02-24 00:36:00,43.2,42.8,29.40,SE,135,0.0,0.7,98,0.00,,,0.61,fowsr,2013-02-24 05:36:00,
2013-02-24 00:41:00,43.2,42.8,29.39,SE,135,0.7,1.6,98,0.00,,,0.61,fowsr,2013-02-24 05:41:00,
2013-02-24 00:46:00,43.2,42.8,29.40,SE,135,0.0,0.0,98,0.00,,,0.61,fowsr,2013-02-24 05:46:00,
2013-02-24 00:51:00,43.2,42.8,29.40,SE,135,0.7,1.6,98,0.00,,,0.61,fowsr,2013-02-24 05:51:00,
2013-02-24 00:56:00,43.2,42.8,29.40,SE,135,0.0,0.7,98,0.00,,,0.61,fowsr,2013-02-24 05:56:00,
2013-02-24 01:01:00,43.2,42.8,29.39,East,90,0.0,0.0,98,0.00,,,0.61,fowsr,2013-02-24 06:01:00,
2013-02-24 01:06:00,43.2,42.8,29.39,East,90,0.0,0.0,98,0.00,,,0.61,fowsr,2013-02-24 06:06:00,
2013-02-24 01:11:00,43.2,42.8,29.39,East,90,0.0,0.0,98,0.00,,,0.61,fowsr,2013-02-24 06:11:00,
2013-02-24 01:16:00,43.2,42.8,29.39,SW,225,0.0,0.0,98,0.00,,,0.61,fowsr,2013-02-24 06:16:00,
2013-02-24 01:21:00,43.2,42.8,29.39,SW,225,0.0,0.0,98,0.00,,,0.61,fowsr,2013-02-24 06:21:00,
2013-02-24 01:26:00,43.2,42.8,29.40,SW,225,0.0,0.0,98,0.00,,,0.61,fowsr,2013-02-24 06:26:00,
2013-02-24 01:31:00,43.2,42.8,29.40,NW,315,0.0,0.7,98,0.00,,,0.61,fowsr,2013-02-24 06:31:00,
2013-02-24 01:36:00,43.2,42.8,29.40,West,270,0.0,0.0,98,0.00,,,0.61,fowsr,2013-02-24 06:36:00,
2013-02-24 01:41:00,43.2,42.8,29.39,SE,135,0.0,0.0,98,0.00,,,0.61,fowsr,2013-02-24 06:41:00,
2013-02-24 01:46:00,43.2,42.8,29.39,SE,135,0.0,0.0,98,0.00,,,0.61,fowsr,2013-02-24 06:46:00,
2013-02-24 01:51:00,43.2,42.8,29.38,SE,135,0.0,0.0,98,0.00,,,0.61,fowsr,2013-02-24 06:51:00,
2013-02-24 01:56:00,43.2,42.8,29.38,NW,315,0.0,0.7,98,0.00,,,0.60,fowsr,2013-02-24 06:56:00,
2013-02-24 02:01:00,43.2,42.8,29.38,NW,315,0.0,0.0,98,0.00,,,0.60,fowsr,2013-02-24 07:01:00,
2013-02-24 02:06:00,43.2,42.8,29.37,NW,315,0.0,0.7,98,0.00,,,0.60,fowsr,2013-02-24 07:06:00,
2013-02-24 02:11:00,43.2,42.8,29.37,NW,315,0.0,0.0,98,0.00,,,0.60,fowsr,2013-02-24 07:11:00,
2013-02-24 02:16:00,43.2,42.8,29.37,NW,315,0.0,0.0,98,0.00,,,0.60,fowsr,2013-02-24 07:16:00,
2013-02-24 02:21:00,43.3,43.0,29.38,NW,315,0.0,0.0,98,0.00,,,0.60,fowsr,2013-02-24 07:21:00,
2013-02-24 02:26:00,43.3,43.0,29.37,West,270,0.0,0.0,98,0.00,,,0.60,fowsr,2013-02-24 07:26:00,
2013-02-24 02:31:00,43.3,43.0,29.37,West,270,0.0,0.0,98,0.00,,,0.60,fowsr,2013-02-24 07:31:00,
2013-02-24 02:36:00,43.3,43.0,29.37,South,180,0.0,0.0,98,0.00,,,0.59,fowsr,2013-02-24 07:36:00,
2013-02-24 02:41:00,43.3,43.0,29.36,NW,315,0.0,0.0,98,0.00,,,0.59,fowsr,2013-02-24 07:41:00,
2013-02-24 02:46:00,43.3,43.0,29.36,West,270,0.0,0.7,98,0.00,,,0.58,fowsr,2013-02-24 07:46:00,
2013-02-24 02:51:00,43.3,43.0,29.36,West,270,0.0,0.0,98,0.00,,,0.57,fowsr,2013-02-24 07:51:00,
2013-02-24 02:56:00,43.3,43.0,29.37,West,270,0.0,0.0,98,0.00,,,0.56,fowsr,2013-02-24 07:56:00,
2013-02-24 03:01:00,43.3,43.0,29.36,West,270,0.0,0.7,98,0.00,,,0.54,fowsr,2013-02-24 08:01:00,
2013-02-24 03:06:00,43.3,43.0,29.36,West,270,0.0,0.7,98,0.00,,,0.54,fowsr,2013-02-24 08:06:00,
2013-02-24 03:11:00,43.3,43.0,29.36,West,270,0.0,0.7,98,0.00,,,0.54,fowsr,2013-02-24 08:11:00,
2013-02-24 03:16:00,43.3,43.0,29.38,NW,315,0.0,0.7,98,0.00,,,0.54,fowsr,2013-02-24 08:16:00,
2013-02-24 03:21:00,43.3,43.0,29.34,NW,315,0.7,1.6,98,0.09,,,0.64,fowsr,2013-02-24 08:21:00,
2013-02-24 03:26:00,43.3,43.0,29.35,West,270,0.0,0.7,98,0.09,,,0.64,fowsr,2013-02-24 08:26:00,
2013-02-24 03:31:00,43.3,43.0,29.36,West,270,0.0,0.0,98,0.09,,,0.64,fowsr,2013-02-24 08:31:00,
2013-02-24 03:36:00,43.3,43.0,29.36,NW,315,0.0,0.7,98,0.09,,,0.64,fowsr,2013-02-24 08:36:00,
2013-02-24 03:41:00,43.3,43.0,29.37,West,270,0.0,0.7,98,0.09,,,0.64,fowsr,2013-02-24 08:41:00,
2013-02-24 03:46:00,43.3,43.0,29.37,West,270,0.0,0.0,98,0.09,,,0.64,fowsr,2013-02-24 08:46:00,
2013-02-24 03:51:00,43.3,43.0,29.36,West,270,0.0,0.0,98,0.09,,,0.64,fowsr,2013-02-24 08:51:00,
2013-02-24 03:56:00,43.3,43.0,29.37,West,270,0.0,0.0,98,0.09,,,0.64,fowsr,2013-02-24 08:56:00,
2013-02-24 04:01:00,43.3,43.0,29.36,NE,45,0.0,0.0,98,0.09,,,0.64,fowsr,2013-02-24 09:01:00,
2013-02-24 04:06:00,43.5,43.1,29.36,NW,315,0.0,0.0,98,0.09,,,0.64,fowsr,2013-02-24 09:06:00,
2013-02-24 04:11:00,43.5,43.1,29.36,West,270,0.0,0.0,98,0.09,,,0.64,fowsr,2013-02-24 09:11:00,
2013-02-24 04:16:00,43.5,43.1,29.35,South,180,0.0,0.0,98,0.09,,,0.64,fowsr,2013-02-24 09:16:00,
2013-02-24 04:21:00,43.7,43.3,29.36,West,270,0.0,0.0,98,0.04,,,0.64,fowsr,2013-02-24 09:21:00,
2013-02-24 04:26:00,43.7,43.3,29.36,West,270,0.0,0.0,98,0.00,,,0.64,fowsr,2013-02-24 09:26:00,
2013-02-24 04:31:00,43.7,43.3,29.36,South,180,0.0,0.0,98,0.00,,,0.64,fowsr,2013-02-24 09:31:00,
2013-02-24 04:36:00,43.7,43.3,29.36,SE,135,0.0,0.0,98,0.00,,,0.64,fowsr,2013-02-24 09:36:00,
2013-02-24 04:41:00,43.7,43.3,29.36,SE,135,0.0,0.0,98,0.00,,,0.64,fowsr,2013-02-24 09:41:00,
2013-02-24 04:46:00,43.7,43.3,29.37,South,180,0.0,0.0,98,0.00,,,0.64,fowsr,2013-02-24 09:46:00,
2013-02-24 04:51:00,43.7,43.3,29.36,South,180,0.0,0.0,98,0.00,,,0.63,fowsr,2013-02-24 09:51:00,
2013-02-24 04:56:00,43.7,43.3,29.37,NW,315,0.0,0.0,98,0.00,,,0.63,fowsr,2013-02-24 09:56:00,
2013-02-24 05:01:00,43.7,43.3,29.36,NW,315,0.0,0.0,98,0.00,,,0.61,fowsr,2013-02-24 10:01:00,
2013-02-24 05:06:00,43.7,43.3,29.36,NW,315,0.0,0.0,98,0.00,,,0.61,fowsr,2013-02-24 10:06:00,
2013-02-24 05:11:00,43.5,43.1,29.36,NW,315,0.0,0.0,98,0.00,,,0.61,fowsr,2013-02-24 10:11:00,
2013-02-24 05:16:00,43.5,43.1,29.36,SE,135,0.0,0.0,98,0.00,,,0.48,fowsr,2013-02-24 10:16:00,
2013-02-24 05:21:00,43.5,43.1,29.37,SE,135,0.0,0.0,98,0.00,,,0.45,fowsr,2013-02-24 10:21:00,
2013-02-24 05:26:00,43.3,43.0,29.38,West,270,0.0,0.0,98,0.00,,,0.44,fowsr,2013-02-24 10:26:00,
2013-02-24 05:31:00,43.3,43.0,29.38,West,270,0.0,0.0,98,0.00,,,0.44,fowsr,2013-02-24 10:31:00,
2013-02-24 05:36:00,43.3,43.0,29.38,West,270,0.0,1.6,98,0.00,,,0.43,fowsr,2013-02-24 10:36:00,
2013-02-24 05:41:00,43.5,43.1,29.39,NW,315,0.0,0.7,98,0.00,,,0.43,fowsr,2013-02-24 10:41:00,
2013-02-24 05:46:00,43.5,43.1,29.39,NW,315,0.0,0.0,98,0.00,,,0.41,fowsr,2013-02-24 10:46:00,
2013-02-24 05:51:00,43.5,43.1,29.40,NW,315,0.0,0.0,98,0.00,,,0.41,fowsr,2013-02-24 10:51:00,
2013-02-24 05:56:00,43.5,43.1,29.40,North,0,0.7,2.2,98,0.00,,,0.40,fowsr,2013-02-24 10:56:00,
2013-02-24 06:01:00,43.7,43.3,29.39,West,270,0.0,0.7,98,0.00,,,0.40,fowsr,2013-02-24 11:01:00,
2013-02-24 06:06:00,43.7,43.3,29.39,West,270,0.0,0.7,98,0.00,,,0.40,fowsr,2013-02-24 11:06:00,
2013-02-24 06:11:00,43.9,43.5,29.40,West,270,0.0,0.7,98,0.00,,,0.39,fowsr,2013-02-24 11:11:00,
2013-02-24 06:16:00,43.9,43.5,29.39,East,90,0.0,0.0,98,0.00,,,0.39,fowsr,2013-02-24 11:16:00,
2013-02-24 06:21:00,43.7,43.3,29.40,East,90,0.0,0.0,98,0.00,,,0.39,fowsr,2013-02-24 11:21:00,
2013-02-24 06:26:00,43.7,43.3,29.39,East,90,0.0,0.0,98,0.00,,,0.39,fowsr,2013-02-24 11:26:00,
2013-02-24 06:31:00,43.5,43.1,29.40,SE,135,0.0,0.0,98,0.00,,,0.39,fowsr,2013-02-24 11:31:00,
2013-02-24 06:36:00,43.3,43.0,29.40,SE,135,0.0,0.0,98,0.00,,,0.38,fowsr,2013-02-24 11:36:00,
2013-02-24 06:41:00,43.0,42.6,29.40,SE,135,0.0,0.0,98,0.00,,,0.38,fowsr,2013-02-24 11:41:00,
2013-02-24 06:46:00,42.8,42.4,29.41,SE,135,0.0,0.0,98,0.00,,,0.38,fowsr,2013-02-24 11:46:00,
2013-02-24 06:51:00,42.4,42.2,29.41,SE,135,0.0,0.0,99,0.00,,,0.38,fowsr,2013-02-24 11:51:00,
2013-02-24 06:56:00,42.3,42.1,29.41,SE,135,0.0,0.0,99,0.00,,,0.37,fowsr,2013-02-24 11:56:00,
2013-02-24 07:01:00,41.9,41.7,29.42,SE,135,0.0,0.0,99,0.00,,,0.37,fowsr,2013-02-24 12:01:00,
2013-02-24 07:06:00,41.7,41.5,29.42,SE,135,0.0,0.0,99,0.00,,,0.37,fowsr,2013-02-24 12:06:00,
2013-02-24 07:11:00,41.5,41.3,29.42,SE,135,0.0,0.0,99,0.00,,,0.35,fowsr,2013-02-24 12:11:00,
2013-02-24 07:16:00,41.4,41.2,29.41,SE,135,0.0,0.0,99,0.00,,,0.35,fowsr,2013-02-24 12:16:00,
2013-02-24 07:21:00,41.2,41.0,29.42,SE,135,0.0,0.0,99,0.00,,,0.35,fowsr,2013-02-24 12:21:00,
2013-02-24 07:26:00,41.0,40.8,29.42,SE,135,0.0,0.0,99,0.00,,,0.34,fowsr,2013-02-24 12:26:00,
2013-02-24 07:31:00,40.8,40.6,29.43,SE,135,0.0,0.0,99,0.00,,,0.34,fowsr,2013-02-24 12:31:00,
2013-02-24 07:36:00,40.8,40.6,29.43,SE,135,0.0,0.0,99,0.00,,,0.34,fowsr,2013-02-24 12:36:00,
2013-02-24 07:41:00,40.8,40.6,29.43,SE,135,0.0,0.0,99,0.00,,,0.33,fowsr,2013-02-24 12:41:00,
2013-02-24 07:46:00,40.8,40.6,29.44,SE,135,0.0,0.0,99,0.00,,,0.33,fowsr,2013-02-24 12:46:00,
2013-02-24 07:51:00,40.8,40.6,29.44,SE,135,0.0,0.0,99,0.00,,,0.32,fowsr,2013-02-24 12:51:00,
2013-02-24 07:56:00,41.0,40.8,29.44,SE,135,0.0,0.0,99,0.00,,,0.31,fowsr,2013-02-24 12:56:00,
2013-02-24 08:01:00,41.2,41.0,29.44,SE,135,0.0,0.0,99,0.00,,,0.29,fowsr,2013-02-24 13:01:00,
2013-02-24 08:06:00,41.5,41.3,29.45,SE,135,0.0,0.0,99,0.00,,,0.28,fowsr,2013-02-24 13:06:00,
2013-02-24 08:11:00,42.1,41.9,29.45,SE,135,0.0,0.0,99,0.00,,,0.28,fowsr,2013-02-24 13:11:00,
2013-02-24 08:16:00,42.4,42.2,29.45,West,270,0.0,0.0,99,0.00,,,0.27,fowsr,2013-02-24 13:16:00,
2013-02-24 08:21:00,43.0,42.6,29.46,SSE,157,0.0,0.7,98,0.00,,,0.27,fowsr,2013-02-24 13:21:00,
2013-02-24 08:26:00,43.5,43.1,29.47,West,270,0.0,0.0,98,0.00,,,0.26,fowsr,2013-02-24 13:26:00,
2013-02-24 08:31:00,43.9,43.5,29.47,SE,135,0.0,0.0,98,0.00,,,0.26,fowsr,2013-02-24 13:31:00,
2013-02-24 08:36:00,44.2,43.8,29.47,NW,315,0.0,0.0,98,0.00,,,0.26,fowsr,2013-02-24 13:36:00,
2013-02-24 08:41:00,44.6,44.0,29.48,South,180,0.0,1.6,97,0.00,,,0.26,fowsr,2013-02-24 13:41:00,
2013-02-24 08:46:00,45.0,44.4,29.48,SW,225,0.0,0.7,97,0.00,,,0.26,fowsr,2013-02-24 13:46:00,
2013-02-24 08:51:00,45.1,44.5,29.48,SW,225,0.0,0.7,97,0.00,,,0.25,fowsr,2013-02-24 13:51:00,
2013-02-24 08:56:00,45.5,44.9,29.48,SW,225,0.0,0.7,97,0.00,,,0.25,fowsr,2013-02-24 13:56:00,
2013-02-24 09:01:00,45.7,45.1,29.49,SW,225,0.0,0.0,97,0.00,,,0.24,fowsr,2013-02-24 14:01:00,
2013-02-24 09:06:00,46.0,45.4,29.48,West,270,0.0,0.0,97,0.00,,,0.24,fowsr,2013-02-24 14:06:00,
2013-02-24 09:11:00,46.2,45.6,29.48,SW,225,0.0,0.7,97,0.00,,,0.22,fowsr,2013-02-24 14:11:00,
2013-02-24 09:16:00,46.6,46.4,29.48,NW,315,0.7,1.6,99,0.00,,,0.22,fowsr,2013-02-24 14:16:00,
2013-02-24 09:21:00,47.3,47.1,29.47,SW,225,0.0,0.0,99,0.00,,,0.21,fowsr,2013-02-24 14:21:00,
2013-02-24 09:26:00,48.0,47.8,29.48,SE,135,0.7,1.6,99,0.00,,,0.20,fowsr,2013-02-24 14:26:00,
2013-02-24 09:31:00,48.7,48.5,29.48,SW,225,0.0,1.6,99,0.01,,,0.20,fowsr,2013-02-24 14:31:00,
2013-02-24 09:36:00,49.3,49.1,29.48,SE,135,0.0,0.7,99,0.01,,,0.19,fowsr,2013-02-24 14:36:00,
2013-02-24 09:41:00,49.8,49.6,29.48,South,180,0.0,0.0,99,0.01,,,0.18,fowsr,2013-02-24 14:41:00,
2013-02-24 09:46:00,50.2,49.8,29.48,North,0,0.0,0.7,98,0.01,,,0.18,fowsr,2013-02-24 14:46:00,
2013-02-24 09:56:00,51.8,50.5,29.48,NW,315,0.7,0.7,94,0.01,,,0.18,fowsr,2013-02-24 14:56:00,
2013-02-24 10:01:00,52.9,50.5,29.48,NW,315,0.7,1.6,89,0.01,,,0.17,fowsr,2013-02-24 15:01:00,
2013-02-24 10:11:00,54.5,49.9,29.48,North,0,0.0,1.6,80,0.01,,,0.17,fowsr,2013-02-24 15:11:00,
2013-02-24 10:16:00,54.7,49.9,29.48,South,180,0.7,3.1,79,0.01,,,0.17,fowsr,2013-02-24 15:16:00,
2013-02-24 10:21:00,55.2,49.9,29.48,East,90,0.0,0.7,77,0.01,,,0.17,fowsr,2013-02-24 15:21:00,
2013-02-24 10:26:00,55.8,50.4,29.48,NW,315,0.0,0.7,77,0.01,,,0.15,fowsr,2013-02-24 15:26:00,
2013-02-24 10:31:00,56.3,50.6,29.48,SE,135,0.0,0.7,76,0.01,,,0.15,fowsr,2013-02-24 15:31:00,
2013-02-24 10:36:00,56.8,50.1,29.48,SW,225,1.6,2.2,72,0.00,,,0.15,fowsr,2013-02-24 15:36:00,
2013-02-24 10:41:00,57.0,49.1,29.48,SW,225,0.7,1.6,68,0.00,,,0.14,fowsr,2013-02-24 15:41:00,
2013-02-24 10:46:00,57.4,48.5,29.48,West,270,1.6,2.2,65,0.00,,,0.14,fowsr,2013-02-24 15:46:00,
2013-02-24 10:51:00,57.4,47.6,29.49,NW,315,1.6,2.2,62,0.00,,,0.14,fowsr,2013-02-24 15:51:00,
2013-02-24 10:56:00,57.4,47.6,29.48,NW,315,0.7,2.2,62,0.00,,,0.14,fowsr,2013-02-24 15:56:00,
2013-02-24 11:01:00,57.9,48.1,29.49,NW,315,0.0,0.0,62,0.00,,,0.14,fowsr,2013-02-24 16:01:00,
2013-02-24 11:06:00,58.1,47.9,29.49,South,180,3.8,5.4,61,0.00,,,0.14,fowsr,2013-02-24 16:06:00,
2013-02-24 11:16:00,59.0,48.4,29.49,WNW,292,0.7,2.2,60,0.00,,,0.14,fowsr,2013-02-24 16:16:00,
2013-02-24 11:21:00,59.2,47.6,29.49,West,270,0.7,2.2,57,0.00,,,0.14,fowsr,2013-02-24 16:21:00,
2013-02-24 11:26:00,59.4,48.1,29.48,SW,225,0.7,1.6,58,0.00,,,0.14,fowsr,2013-02-24 16:26:00,
2013-02-24 11:31:00,59.9,48.6,29.48,WNW,292,1.6,3.8,58,0.00,,,0.14,fowsr,2013-02-24 16:31:00,
2013-02-24 11:36:00,60.3,47.9,29.48,South,180,1.6,2.2,55,0.00,,,0.14,fowsr,2013-02-24 16:36:00,
2013-02-24 11:41:00,60.8,47.6,29.49,West,270,2.2,4.5,53,0.00,,,0.13,fowsr,2013-02-24 16:41:00,
2013-02-24 11:46:00,60.4,46.9,29.48,West,270,0.7,1.6,52,0.00,,,0.13,fowsr,2013-02-24 16:46:00,
2013-02-24 11:51:00,60.8,47.6,29.48,NW,315,1.6,3.8,53,0.00,,,0.13,fowsr,2013-02-24 16:51:00,
2013-02-24 11:56:00,61.0,47.8,29.48,West,270,2.2,3.8,53,0.00,,,0.13,fowsr,2013-02-24 16:56:00,
2013-02-24 12:01:00,60.8,46.1,29.48,West,270,0.0,0.7,49,0.00,,,0.13,fowsr,2013-02-24 17:01:00,
2013-02-24 12:11:00,60.6,46.3,29.48,SW,225,0.0,0.7,50,0.00,,,0.13,fowsr,2013-02-24 17:11:00,
2013-02-24 12:16:00,61.0,46.2,29.48,NW,315,0.7,2.2,49,0.00,,,0.13,fowsr,2013-02-24 17:16:00,
2013-02-24 12:21:00,61.5,47.1,29.48,West,270,1.6,3.1,50,0.00,,,0.13,fowsr,2013-02-24 17:21:00,
2013-02-24 12:26:00,61.9,47.8,29.48,NW,315,0.0,0.7,51,0.00,,,0.13,fowsr,2013-02-24 17:26:00,
2013-02-24 12:31:00,62.2,47.0,29.47,West,270,0.7,2.2,48,0.00,,,0.13,fowsr,2013-02-24 17:31:00,
2013-02-24 12:36:00,62.1,45.5,29.47,NW,315,0.7,2.2,45,0.00,,,0.13,fowsr,2013-02-24 17:36:00,
2013-02-24 12:41:00,62.2,47.0,29.47,West,270,0.0,1.6,48,0.00,,,0.13,fowsr,2013-02-24 17:41:00,
2013-02-24 12:46:00,62.8,45.7,29.47,West,270,2.2,3.1,44,0.00,,,0.12,fowsr,2013-02-24 17:46:00,
2013-02-24 12:51:00,62.4,44.1,29.47,SW,225,2.2,3.8,41,0.00,,,0.12,fowsr,2013-02-24 17:51:00,
2013-02-24 12:56:00,62.4,44.1,29.47,West,270,3.1,5.4,41,0.00,,,0.12,fowsr,2013-02-24 17:56:00,
2013-02-24 13:01:00,62.2,44.4,29.46,SW,225,2.2,3.8,42,0.00,,,0.12,fowsr,2013-02-24 18:01:00,
2013-02-24 13:06:00,62.4,44.1,29.46,NW,315,2.2,4.5,41,0.00,,,0.12,fowsr,2013-02-24 18:06:00,
2013-02-24 13:11:00,62.4,43.6,29.46,SW,225,1.6,2.2,40,0.00,,,0.12,fowsr,2013-02-24 18:11:00,
2013-02-24 13:16:00,62.8,43.9,29.45,SE,135,0.7,1.6,40,0.00,,,0.12,fowsr,2013-02-24 18:16:00,
2013-02-24 13:21:00,63.3,44.4,29.45,SE,135,0.0,0.7,40,0.00,,,0.12,fowsr,2013-02-24 18:21:00,
2013-02-24 13:26:00,63.9,44.8,29.45,NW,315,1.6,3.1,40,0.00,,,0.12,fowsr,2013-02-24 18:26:00,
2013-02-24 13:31:00,64.2,45.2,29.45,South,180,1.6,3.1,40,0.00,,,0.12,fowsr,2013-02-24 18:31:00,
2013-02-24 13:36:00,64.8,46.6,29.45,SE,135,0.0,1.6,42,0.00,,,0.11,fowsr,2013-02-24 18:36:00,
2013-02-24 13:41:00,65.7,47.4,29.45,SW,225,0.7,1.6,42,0.00,,,0.11,fowsr,2013-02-24 18:41:00,
2013-02-24 13:46:00,65.5,45.8,29.44,SW,225,0.7,2.2,39,0.00,,,0.11,fowsr,2013-02-24 18:46:00,
2013-02-24 13:51:00,64.8,45.1,29.44,West,270,0.7,2.2,39,0.00,,,0.11,fowsr,2013-02-24 18:51:00,
2013-02-24 13:56:00,64.6,46.4,29.44,NW,315,0.0,1.6,42,0.00,,,0.11,fowsr,2013-02-24 18:56:00,
2013-02-24 14:01:00,64.8,46.6,29.44,North,0,3.1,5.4,42,0.00,,,0.11,fowsr,2013-02-24 19:01:00,
2013-02-24 14:06:00,64.4,44.8,29.44,West,270,0.7,2.2,39,0.00,,,0.11,fowsr,2013-02-24 19:06:00,
2013-02-24 14:11:00,64.8,46.1,29.44,NW,315,0.0,1.6,41,0.00,,,0.11,fowsr,2013-02-24 19:11:00,
2013-02-24 14:16:00,65.7,46.4,29.44,NW,315,0.0,2.2,40,0.00,,,0.11,fowsr,2013-02-24 19:16:00,
2013-02-24 14:21:00,66.2,46.4,29.44,East,90,0.7,1.6,39,0.00,,,0.11,fowsr,2013-02-24 19:21:00,
2013-02-24 14:26:00,66.7,46.4,29.44,South,180,0.7,2.2,38,0.00,,,0.11,fowsr,2013-02-24 19:26:00,
2013-02-24 14:31:00,66.9,46.0,29.44,SW,225,1.6,3.1,37,0.00,,,0.11,fowsr,2013-02-24 19:31:00,
2013-02-24 14:36:00,67.1,46.1,29.44,East,90,0.7,3.1,37,0.00,,,0.11,fowsr,2013-02-24 19:36:00,
2013-02-24 14:41:00,67.3,44.7,29.44,NE,45,2.2,4.5,34,0.00,,,0.11,fowsr,2013-02-24 19:41:00,
2013-02-24 14:46:00,66.6,45.1,29.44,West,270,0.7,2.2,36,0.00,,,0.11,fowsr,2013-02-24 19:46:00,
2013-02-24 14:51:00,66.6,44.6,29.44,SW,225,0.7,1.6,35,0.00,,,0.11,fowsr,2013-02-24 19:51:00,
2013-02-24 14:56:00,66.4,46.0,29.44,SW,225,1.6,3.8,38,0.00,,,0.11,fowsr,2013-02-24 19:56:00,
2013-02-24 15:01:00,66.4,45.0,29.43,West,270,0.7,2.2,36,0.00,,,0.11,fowsr,2013-02-24 20:01:00,
2013-02-24 15:06:00,66.2,45.4,29.44,SW,225,1.6,3.1,37,0.00,,,0.11,fowsr,2013-02-24 20:06:00,
2013-02-24 15:11:00,65.8,44.5,29.44,NW,315,0.7,2.2,36,0.00,,,0.11,fowsr,2013-02-24 20:11:00,
2013-02-24 15:16:00,65.8,44.5,29.44,SW,225,0.0,0.0,36,0.00,,,0.11,fowsr,2013-02-24 20:16:00,
2013-02-24 15:21:00,66.0,44.7,29.44,North,0,3.8,6.0,36,0.00,,,0.11,fowsr,2013-02-24 20:21:00,
2013-02-24 15:26:00,66.0,44.1,29.44,West,270,2.2,3.8,35,0.00,,,0.11,fowsr,2013-02-24 20:26:00,
2013-02-24 15:31:00,66.0,43.6,29.44,SE,135,0.7,2.2,34,0.00,,,0.11,fowsr,2013-02-24 20:31:00,
2013-02-24 15:36:00,66.0,43.0,29.44,NW,315,0.0,0.7,33,0.00,,,0.11,fowsr,2013-02-24 20:36:00,
2013-02-24 15:41:00,65.7,42.1,29.44,West,270,2.2,3.1,32,0.00,,,0.11,fowsr,2013-02-24 20:41:00,
2013-02-24 15:46:00,65.1,40.4,29.44,West,270,1.6,3.1,30,0.00,,,0.11,fowsr,2013-02-24 20:46:00,
2013-02-24 15:51:00,64.6,40.6,29.44,West,270,0.7,2.2,31,0.00,,,0.11,fowsr,2013-02-24 20:51:00,
2013-02-24 15:56:00,64.4,40.4,29.44,SW,225,1.6,2.2,31,0.00,,,0.11,fowsr,2013-02-24 20:56:00,
2013-02-24 16:01:00,64.2,38.4,29.44,NW,315,0.7,1.6,28,0.00,,,0.11,fowsr,2013-02-24 21:01:00,
2013-02-24 16:06:00,64.2,37.7,29.45,West,270,0.0,0.7,27,0.00,,,0.11,fowsr,2013-02-24 21:06:00,
2013-02-24 16:11:00,64.2,37.7,29.44,SE,135,0.7,1.6,27,0.00,,,0.11,fowsr,2013-02-24 21:11:00,
2013-02-24 16:16:00,64.2,35.5,29.44,South,180,0.7,2.2,24,0.00,,,0.11,fowsr,2013-02-24 21:16:00,
2013-02-24 16:21:00,64.0,35.4,29.45,West,270,2.2,4.5,24,0.00,,,0.11,fowsr,2013-02-24 21:21:00,
2013-02-24 16:26:00,63.9,34.5,29.45,SW,225,1.6,2.2,23,0.00,,,0.11,fowsr,2013-02-24 21:26:00,
2013-02-24 16:31:00,63.9,34.5,29.45,West,270,1.6,2.2,23,0.00,,,0.11,fowsr,2013-02-24 21:31:00,
2013-02-24 16:36:00,63.9,34.5,29.45,NW,315,3.1,3.8,23,0.00,,,0.11,fowsr,2013-02-24 21:36:00,
2013-02-24 16:41:00,63.9,33.7,29.45,South,180,1.6,3.1,22,0.00,,,0.11,fowsr,2013-02-24 21:41:00,
2013-02-24 16:46:00,63.7,32.7,29.46,West,270,0.7,3.1,21,0.00,,,0.11,fowsr,2013-02-24 21:46:00,
2013-02-24 16:51:00,63.5,32.6,29.45,SE,135,2.2,3.8,21,0.00,,,0.11,fowsr,2013-02-24 21:51:00,
2013-02-24 16:56:00,63.1,32.3,29.46,NW,315,0.0,0.7,21,0.00,,,0.11,fowsr,2013-02-24 21:56:00,
2013-02-24 17:01:00,62.6,30.1,29.46,NW,315,1.6,2.2,19,0.00,,,0.11,fowsr,2013-02-24 22:01:00,
2013-02-24 17:06:00,62.2,31.5,29.46,NW,315,1.6,3.1,21,0.00,,,0.11,fowsr,2013-02-24 22:06:00,
2013-02-24 17:11:00,61.7,31.9,29.46,West,270,0.0,1.6,22,0.00,,,0.11,fowsr,2013-02-24 22:11:00,
2013-02-24 17:16:00,61.5,32.6,29.47,NW,315,0.0,1.6,23,0.00,,,0.11,fowsr,2013-02-24 22:16:00,
2013-02-24 17:21:00,61.2,31.5,29.47,South,180,0.0,0.0,22,0.00,,,0.11,fowsr,2013-02-24 22:21:00,
2013-02-24 17:26:00,60.8,32.0,29.47,SE,135,0.0,0.7,23,0.00,,,0.11,fowsr,2013-02-24 22:26:00,
2013-02-24 17:31:00,60.6,34.0,29.47,South,180,0.0,0.0,26,0.00,,,0.11,fowsr,2013-02-24 22:31:00,
2013-02-24 17:36:00,60.3,35.1,29.47,NW,315,0.0,0.0,28,0.00,,,0.11,fowsr,2013-02-24 22:36:00,
2013-02-24 17:41:00,59.7,34.6,29.47,NW,315,0.7,1.6,28,0.00,,,0.11,fowsr,2013-02-24 22:41:00,
2013-02-24 17:46:00,59.4,34.3,29.47,NW,315,0.0,0.0,28,0.00,,,0.11,fowsr,2013-02-24 22:46:00,
2013-02-24 17:51:00,59.2,35.4,29.47,NW,315,0.0,0.0,30,0.00,,,0.11,fowsr,2013-02-24 22:51:00,
2013-02-24 17:56:00,58.6,35.5,29.47,NW,315,0.0,0.0,31,0.00,,,0.11,fowsr,2013-02-24 22:56:00,
2013-02-24 18:01:00,58.1,35.7,29.47,NW,315,0.0,0.0,32,0.00,,,0.11,fowsr,2013-02-24 23:01:00,
2013-02-24 18:06:00,57.6,35.8,29.48,NW,315,0.0,0.0,33,0.00,,,0.11,fowsr,2013-02-24 23:06:00,
2013-02-24 18:11:00,56.8,36.2,29.48,NW,315,0.0,0.0,35,0.00,,,0.11,fowsr,2013-02-24 23:11:00,
2013-02-24 18:16:00,56.3,36.3,29.48,NW,315,0.0,0.0,36,0.00,,,0.11,fowsr,2013-02-24 23:16:00,
2013-02-24 18:21:00,55.6,37.1,29.48,NW,315,0.0,0.0,39,0.00,,,0.11,fowsr,2013-02-24 23:21:00,
2013-02-24 18:26:00,55.0,37.5,29.48,NW,315,0.0,0.0,41,0.00,,,0.11,fowsr,2013-02-24 23:26:00,
2013-02-24 18:31:00,54.3,37.3,29.49,NW,315,0.0,0.0,42,0.00,,,0.11,fowsr,2013-02-24 23:31:00,
2013-02-24 18:36:00,53.8,36.9,29.49,NW,315,0.0,0.0,42,0.00,,,0.11,fowsr,2013-02-24 23:36:00,
2013-02-24 18:41:00,53.2,37.2,29.49,NW,315,0.0,0.0,44,0.00,,,0.11,fowsr,2013-02-24 23:41:00,
2013-02-24 18:46:00,52.7,37.2,29.50,NW,315,0.0,0.0,45,0.00,,,0.11,fowsr,2013-02-24 23:46:00,
2013-02-24 18:51:00,52.2,37.5,29.50,NW,315,0.0,0.0,47,0.00,,,0.11,fowsr,2013-02-24 23:51:00,
2013-02-24 18:56:00,51.8,37.9,29.49,NW,315,0.0,0.0,49,0.00,,,0.11,fowsr,2013-02-24 23:56:00,
2013-02-24 19:01:00,51.3,38.2,29.50,NW,315,0.0,0.0,51,0.00,,,0.11,fowsr,2013-02-25 00:01:00,
2013-02-24 19:06:00,50.7,38.1,29.50,NW,315,0.0,0.0,52,0.00,,,0.11,fowsr,2013-02-25 00:06:00,
2013-02-24 19:11:00,50.4,38.1,29.50,NW,315,0.0,0.0,53,0.00,,,0.11,fowsr,2013-02-25 00:11:00,
2013-02-24 19:16:00,50.0,37.7,29.50,NW,315,0.0,0.0,53,0.00,,,0.11,fowsr,2013-02-25 00:16:00,
2013-02-24 19:21:00,49.5,37.6,29.51,NW,315,0.0,0.0,54,0.00,,,0.11,fowsr,2013-02-25 00:21:00,
2013-02-24 19:26:00,49.1,37.3,29.51,NW,315,0.0,0.0,54,0.00,,,0.11,fowsr,2013-02-25 00:26:00,
2013-02-24 19:31:00,48.7,37.3,29.51,NW,315,0.0,0.0,55,0.00,,,0.11,fowsr,2013-02-25 00:31:00,
2013-02-24 19:36:00,48.4,37.3,29.51,NW,315,0.0,0.0,56,0.00,,,0.11,fowsr,2013-02-25 00:36:00,
2013-02-24 19:41:00,48.0,37.6,29.52,NW,315,0.0,0.0,58,0.00,,,0.11,fowsr,2013-02-25 00:41:00,
2013-02-24 19:46:00,47.7,37.6,29.51,NW,315,0.0,0.0,59,0.00,,,0.11,fowsr,2013-02-25 00:46:00,
2013-02-24 19:51:00,47.5,38.0,29.51,NW,315,0.0,0.0,61,0.00,,,0.11,fowsr,2013-02-25 00:51:00,
2013-02-24 19:56:00,47.1,38.0,29.52,NW,315,0.0,0.0,62,0.00,,,0.11,fowsr,2013-02-25 00:56:00,
2013-02-24 20:01:00,46.8,37.6,29.53,NW,315,0.0,0.7,62,0.00,,,0.11,fowsr,2013-02-25 01:01:00,
2013-02-24 20:06:00,46.6,37.8,29.53,SE,135,0.0,0.0,63,0.00,,,0.11,fowsr,2013-02-25 01:06:00,
2013-02-24 20:11:00,46.4,37.6,29.54,SE,135,0.0,0.0,63,0.00,,,0.11,fowsr,2013-02-25 01:11:00,
2013-02-24 20:16:00,46.0,37.0,29.54,SE,135,0.0,0.0,62,0.00,,,0.11,fowsr,2013-02-25 01:16:00,
2013-02-24 20:21:00,45.9,37.1,29.54,SE,135,0.0,0.0,63,0.00,,,0.11,fowsr,2013-02-25 01:21:00,
2013-02-24 20:26:00,45.5,37.0,29.54,SE,135,0.0,0.0,64,0.00,,,0.11,fowsr,2013-02-25 01:26:00,
2013-02-24 20:31:00,45.3,36.9,29.54,SE,135,0.0,0.0,64,0.00,,,0.11,fowsr,2013-02-25 01:31:00,
2013-02-24 20:36:00,44.8,36.6,29.54,SE,135,0.0,0.0,65,0.00,,,0.11,fowsr,2013-02-25 01:36:00,
2013-02-24 20:41:00,44.4,37.1,29.55,NW,315,0.0,0.0,68,0.00,,,0.11,fowsr,2013-02-25 01:41:00,
2013-02-24 20:46:00,44.1,36.8,29.55,NW,315,0.0,0.0,68,0.00,,,0.11,fowsr,2013-02-25 01:46:00,
2013-02-24 20:51:00,43.9,36.6,29.56,North,0,0.0,0.0,68,0.00,,,0.11,fowsr,2013-02-25 01:51:00,
2013-02-24 20:56:00,43.7,36.7,29.55,North,0,0.0,0.0,69,0.00,,,0.11,fowsr,2013-02-25 01:56:00,
2013-02-24 21:06:00,43.3,36.1,29.55,NW,315,0.0,0.0,68,0.00,,,0.11,fowsr,2013-02-25 02:06:00,
2013-02-24 21:11:00,43.2,36.2,29.55,NW,315,0.0,0.7,69,0.00,,,0.11,fowsr,2013-02-25 02:11:00,
2013-02-24 21:16:00,43.2,36.2,29.56,NW,315,0.0,0.0,69,0.00,,,0.11,fowsr,2013-02-25 02:16:00,
2013-02-24 21:21:00,43.0,36.3,29.56,SE,135,0.0,0.0,70,0.00,,,0.11,fowsr,2013-02-25 02:21:00,
2013-02-24 21:26:00,43.0,36.0,29.56,SSE,157,0.0,0.0,69,0.00,,,0.11,fowsr,2013-02-25 02:26:00,
2013-02-24 21:31:00,43.0,35.2,29.56,South,180,0.0,0.0,66,0.00,,,0.11,fowsr,2013-02-25 02:31:00,
2013-02-24 21:36:00,43.2,35.4,29.56,NW,315,0.0,0.7,66,0.00,,,0.11,fowsr,2013-02-25 02:36:00,
2013-02-24 21:41:00,43.3,35.6,29.56,NW,315,0.0,0.0,66,0.00,,,0.11,fowsr,2013-02-25 02:41:00,
2013-02-24 21:46:00,43.3,35.6,29.56,NW,315,0.0,0.0,66,0.00,,,0.11,fowsr,2013-02-25 02:46:00,
2013-02-24 21:51:00,43.2,35.4,29.55,NW,315,0.0,0.0,66,0.00,,,0.11,fowsr,2013-02-25 02:51:00,
2013-02-24 21:56:00,43.2,35.4,29.56,East,90,0.0,0.0,66,0.00,,,0.11,fowsr,2013-02-25 02:56:00,
2013-02-24 22:01:00,43.3,34.7,29.56,South,180,0.0,0.0,63,0.00,,,0.11,fowsr,2013-02-25 03:01:00,
2013-02-24 22:06:00,43.5,34.3,29.57,NE,45,0.0,0.0,61,0.00,,,0.11,fowsr,2013-02-25 03:06:00,
2013-02-24 22:11:00,43.9,34.3,29.56,NE,45,0.0,0.0,60,0.00,,,0.11,fowsr,2013-02-25 03:11:00,
2013-02-24 22:16:00,43.9,34.3,29.56,NE,45,0.0,0.0,60,0.00,,,0.11,fowsr,2013-02-25 03:16:00,
2013-02-24 22:21:00,43.7,34.8,29.56,NW,315,0.0,0.0,62,0.00,,,0.11,fowsr,2013-02-25 03:21:00,
2013-02-24 22:26:00,43.5,34.9,29.56,North,0,0.0,0.7,63,0.00,,,0.11,fowsr,2013-02-25 03:26:00,
2013-02-24 22:31:00,43.3,34.7,29.57,North,0,0.0,0.0,63,0.00,,,0.11,fowsr,2013-02-25 03:31:00,
2013-02-24 22:36:00,43.2,34.0,29.57,South,180,0.0,0.0,61,0.00,,,0.11,fowsr,2013-02-25 03:36:00,
2013-02-24 22:41:00,43.2,34.0,29.57,NW,315,0.0,0.0,61,0.00,,,0.11,fowsr,2013-02-25 03:41:00,
2013-02-24 22:46:00,43.0,34.1,29.57,NW,315,0.0,0.0,62,0.00,,,0.11,fowsr,2013-02-25 03:46:00,
2013-02-24 22:51:00,43.0,34.1,29.57,NW,315,0.0,0.0,62,0.00,,,0.11,fowsr,2013-02-25 03:51:00,
2013-02-24 22:56:00,42.3,34.5,29.57,East,90,0.0,0.0,66,0.00,,,0.11,fowsr,2013-02-25 03:56:00,
2013-02-24 23:01:00,41.9,34.2,29.57,East,90,0.0,0.0,66,0.00,,,0.11,fowsr,2013-02-25 04:01:00,
2013-02-24 23:06:00,41.9,34.2,29.57,East,90,0.0,0.0,66,0.00,,,0.11,fowsr,2013-02-25 04:06:00,
2013-02-24 23:11:00,41.4,34.0,29.58,East,90,0.0,0.0,67,0.00,,,0.11,fowsr,2013-02-25 04:11:00,
2013-02-24 23:16:00,41.0,33.9,29.58,East,90,0.0,0.0,68,0.00,,,0.11,fowsr,2013-02-25 04:16:00,
2013-02-24 23:21:00,40.8,34.2,29.58,East,90,0.0,0.0,70,0.00,,,0.11,fowsr,2013-02-25 04:21:00,
2013-02-24 23:26:00,40.5,34.2,29.59,East,90,0.0,0.0,71,0.00,,,0.11,fowsr,2013-02-25 04:26:00,
2013-02-24 23:31:00,40.3,34.0,29.58,NW,315,0.0,0.0,71,0.00,,,0.11,fowsr,2013-02-25 04:31:00,
2013-02-24 23:36:00,40.1,33.8,29.59,NW,315,0.0,0.0,71,0.00,,,0.11,fowsr,2013-02-25 04:36:00,
2013-02-24 23:41:00,39.9,33.6,29.59,NW,315,0.0,0.0,71,0.00,,,0.11,fowsr,2013-02-25 04:41:00,
2013-02-24 23:46:00,39.6,33.3,29.59,NW,315,0.0,0.0,71,0.00,,,0.11,fowsr,2013-02-25 04:46:00,
2013-02-24 23:51:00,39.4,33.4,29.59,NW,315,0.0,0.0,72,0.00,,,0.11,fowsr,2013-02-25 04:51:00,
2013-02-24 23:56:00,39.2,33.2,29.59,NW,315,0.0,0.0,72,0.00,,,0.11,fowsr,2013-02-25 04:56:00,